Date,TemperatureHighF,TemperatureAvgF,TemperatureLowF,DewpointHighF,DewpointAvgF,DewpointLowF,HumidityHigh,HumidityAvg,HumidityLow,PressureMaxIn,PressureMinIn,WindSpeedMaxMPH,WindSpeedAvgMPH,GustSpeedMaxMPH,PrecipitationSumIn
2012-1-1,40,36,33,-100,-100,-100,0,0,100,0.00,40.00,0,-999,0,0.16
2012-1-2,36,31,21,-100,-100,-100,0,0,100,0.00,40.00,0,-999,0,0.41
2012-1-3,21,8,-2,-100,-100,-100,0,0,100,0.00,40.00,0,-999,0,0.01
2012-1-4,13,4,-4,-100,-100,-100,0,0,100,0.00,40.00,0,-999,0,0.00
2012-1-5,24,18,13,-100,-100,-100,0,0,100,0.00,40.00,0,-999,0,0.00
2012-1-6,23,17,9,-100,-100,-100,0,0,100,0.00,40.00,0,-999,0,0.04
2012-1-7,35,28,19,-100,-100,-100,0,0,100,0.00,40.00,0,-999,0,0.06
2012-1-8,34,24,12,-100,-100,-100,0,0,100,0.00,40.00,0,-999,0,0.07
2012-1-9,28,16,5,-100,-100,-100,0,0,100,0.00,40.00,0,-999,0,0.00
2012-1-10,32,24,16,-100,-100,-100,0,0,100,0.00,40.00,0,-999,0,0.00
2012-1-11,24,16,3,-100,-100,-100,0,0,100,0.00,40.00,0,-999,0,0.00
2012-1-12,23,22,20,-100,-100,-100,0,0,100,0.00,40.00,0,-999,0,0.24
2012-1-13,31,25,22,-100,-100,-100,0,0,100,0.00,40.00,0,-999,0,0.26
2012-1-14,23,7,-6,-100,-100,-100,0,0,100,0.00,40.00,0,-999,0,0.04
2012-1-15,-1,-5,-9,-100,-100,-100,0,0,100,0.00,40.00,0,-999,0,0.00
2012-1-16,16,2,-14,-100,-100,-100,0,0,100,0.00,40.00,0,-999,0,0.00
2012-1-17,30,26,11,-100,-100,-100,0,0,100,0.00,40.00,0,-999,0,0.22
2012-1-18,37,18,5,-100,-100,-100,0,0,100,0.00,40.00,0,-999,0,0.17
2012-1-19,19,8,-9,-100,-100,-100,0,0,100,0.00,40.00,0,-999,0,0.00
2012-1-20,19,12,-2,-100,-100,-100,0,0,100,0.00,40.00,0,-999,0,0.09
2012-1-21,12,2,-10,-100,-100,-100,0,0,100,0.00,40.00,0,-999,0,0.01
2012-1-22,20,0,-17,-100,-100,-100,0,0,100,0.00,40.00,0,-999,0,0.01
2012-1-23,35,21,-1,-100,-100,-100,0,0,100,0.00,40.00,0,-999,0,0.25
2012-1-24,38,34,31,-100,-100,-100,0,0,100,0.00,40.00,0,-999,0,0.33
2012-1-25,31,26,21,-100,-100,-100,0,0,100,0.00,40.00,0,-999,0,0.00
2012-1-26,32,23,11,-100,-100,-100,0,0,100,0.00,40.00,0,-999,0,0.02
2012-1-27,32,28,25,-100,-100,-100,0,0,100,0.00,40.00,0,-999,0,0.90
2012-1-28,34,30,25,-100,-100,-100,0,0,100,0.00,40.00,0,-999,0,0.13
2012-1-29,33,28,26,-100,-100,-100,0,0,100,0.00,40.00,0,-999,0,0.01
2012-1-30,27,19,5,-100,-100,-100,0,0,100,0.00,40.00,0,-999,0,0.00
2012-1-31,22,13,2,-100,-100,-100,0,0,100,0.00,40.00,0,-999,0,0.15
2012-2-1,36,29,22,-100,-100,-100,0,0,100,0.00,40.00,0,-999,0,0.15
2012-2-2,33,24,16,-100,-100,-100,0,0,100,0.00,40.00,0,-999,0,0.01
2012-2-3,25,19,11,-100,-100,-100,0,0,100,0.00,40.00,0,-999,0,0.00
2012-2-4,25,18,6,-100,-100,-100,0,0,100,0.00,40.00,0,-999,0,0.00
2012-2-5,24,13,-5,-100,-100,-100,0,0,100,0.00,40.00,0,-999,0,0.00
2012-2-6,42,32,23,-100,-100,-100,0,0,100,0.00,40.00,0,-999,0,0.00
2012-2-7,36,24,8,-100,-100,-100,0,0,100,0.00,40.00,0,-999,0,0.00
2012-2-8,29,12,-6,-100,-100,-100,0,0,100,0.00,40.00,0,-999,0,0.00
2012-2-9,35,19,4,-100,-100,-100,0,0,100,0.00,40.00,0,-999,0,0.00
2012-2-10,41,22,1,-100,-100,-100,0,0,100,0.00,40.00,0,-999,0,0.00
2012-2-11,31,22,9,-100,-100,-100,0,0,100,0.00,40.00,0,-999,0,0.00
2012-2-12,9,2,-1,-100,-100,-100,0,0,100,0.00,40.00,0,-999,0,0.00
2012-2-13,23,14,5,-100,-100,-100,0,0,100,0.00,40.00,0,-999,0,0.00
2012-2-14,34,24,9,-100,-100,-100,0,0,100,0.00,40.00,0,-999,0,0.00
2012-2-15,39,31,23,-100,-100,-100,0,0,100,0.00,40.00,0,-999,0,0.00
2012-2-16,43,35,30,-100,-100,-100,0,0,100,0.00,40.00,0,-999,0,0.00
2012-2-17,40,34,28,-100,-100,-100,0,0,100,0.00,40.00,0,-999,0,0.07
2012-2-18,32,30,27,-100,-100,-100,0,0,100,0.00,40.00,0,-999,0,0.01
2012-2-19,28,23,14,-100,-100,-100,0,0,100,0.00,40.00,0,-999,0,0.00
2012-2-20,27,19,12,-100,-100,-100,0,0,100,0.00,40.00,0,-999,0,0.00
2012-2-21,37,21,2,-100,-100,-100,0,0,100,0.00,40.00,0,-999,0,0.00
2012-2-22,43,33,26,-100,-100,-100,0,0,100,0.00,40.00,0,-999,0,0.04
2012-2-23,37,33,30,-100,-100,-100,0,0,100,0.00,40.00,0,-999,0,0.03
2012-2-24,36,30,25,-100,-100,-100,0,0,100,0.00,40.00,0,-999,0,0.37
2012-2-25,30,26,18,-100,-100,-100,0,0,100,0.00,40.00,0,-999,0,0.52
2012-2-26,23,15,5,-100,-100,-100,0,0,100,0.00,40.00,0,-999,0,0.01
2012-2-27,27,14,-4,-100,-100,-100,0,0,100,0.00,40.00,0,-999,0,0.02
2012-2-28,30,20,2,-100,-100,-100,0,0,100,0.00,40.00,0,-999,0,0.05
2012-2-29,31,15,-8,-100,-100,-100,0,0,100,0.00,40.00,0,-999,0,0.02
2012-3-1,25,17,14,-100,-100,-100,0,0,100,0.00,40.00,0,-999,0,0.30
2012-3-2,25,18,13,-100,-100,-100,0,0,100,0.00,40.00,0,-999,0,0.08
2012-3-3,42,31,19,-100,-100,-100,0,0,100,0.00,40.00,0,-999,0,0.10
2012-3-4,35,30,20,-100,-100,-100,0,0,100,0.00,40.00,0,-999,0,0.10
2012-3-5,20,12,7,-100,-100,-100,0,0,100,0.00,40.00,0,-999,0,0.05
2012-3-6,28,11,-9,-100,-100,-100,0,0,100,0.00,40.00,0,-999,0,0.00
2012-3-7,54,30,5,-100,-100,-100,0,0,100,0.00,40.00,0,-999,0,0.25
2012-3-8,60,50,32,-100,-100,-100,0,0,100,0.00,40.00,0,-999,0,0.17
2012-3-9,37,25,12,-100,-100,-100,0,0,100,0.00,40.00,0,-999,0,0.46
2012-3-10,31,20,8,-100,-100,-100,0,0,100,0.00,40.00,0,-999,0,0.02
2012-3-11,48,30,14,-100,-100,-100,0,0,100,0.00,40.00,0,-999,0,0.00
2012-3-12,59,38,23,-100,-100,-100,0,0,100,0.00,40.00,0,-999,0,0.00
2012-3-13,53,39,34,-100,-100,-100,0,0,100,0.00,40.00,0,-999,0,0.05
2012-3-14,38,34,29,-100,-100,-100,0,0,100,0.00,40.00,0,-999,0,0.18
2012-3-15,39,33,29,-100,-100,-100,0,0,100,0.00,40.00,0,-999,0,0.05
2012-3-16,35,33,31,-100,-100,-100,0,0,100,0.00,40.00,0,-999,0,0.26
2012-3-17,56,40,31,-100,-100,-100,0,0,100,0.00,40.00,0,-999,0,0.03
2012-3-18,72,46,30,-100,-100,-100,0,0,100,0.00,40.00,0,-999,0,0.00
2012-3-19,71,46,30,-100,-100,-100,0,0,100,0.00,40.00,0,-999,0,0.00
2012-3-20,74,47,30,-100,-100,-100,0,0,100,0.00,40.00,0,-999,0,0.00
2012-3-21,77,50,32,-100,-100,-100,0,0,100,0.00,40.00,0,-999,0,0.00
2012-3-22,77,54,32,-100,-100,-100,0,0,100,0.00,40.00,0,-999,0,0.00
2012-3-23,58,48,36,-100,-100,-100,0,0,100,0.00,40.00,0,-999,0,0.00
2012-3-24,56,41,32,-100,-100,-100,0,0,100,0.00,40.00,0,-999,0,0.00
2012-3-25,43,39,36,-100,-100,-100,0,0,100,0.00,40.00,0,-999,0,0.07
2012-3-26,39,27,21,-100,-100,-100,0,0,100,0.00,40.00,0,-999,0,0.02
2012-3-27,35,24,14,-100,-100,-100,0,0,100,0.00,40.00,0,-999,0,0.02
2012-3-28,36,29,23,-100,-100,-100,0,0,100,0.00,40.00,0,-999,0,0.35
2012-3-29,33,31,29,-100,-100,-100,0,0,100,0.00,40.00,0,-999,0,0.20
2012-3-30,34,27,20,-100,-100,-100,0,0,100,0.00,40.00,0,-999,0,0.01
2012-3-31,44,27,13,-100,-100,-100,0,0,100,0.00,40.00,0,-999,0,0.00
2012-4-1,44,30,16,-100,-100,-100,0,0,100,0.00,40.00,0,-999,0,0.03
2012-4-2,41,35,28,-100,-100,-100,0,0,100,0.00,40.00,0,-999,0,0.03
2012-4-3,45,34,25,-100,-100,-100,0,0,100,0.00,40.00,0,-999,0,0.00
2012-4-4,46,38,32,-100,-100,-100,0,0,100,0.00,40.00,0,-999,0,0.00
2012-4-5,36,33,30,-100,-100,-100,0,0,100,0.00,40.00,0,-999,0,0.00
2012-4-6,43,35,29,-100,-100,-100,0,0,100,0.00,40.00,0,-999,0,0.00
2012-4-7,38,34,28,-100,-100,-100,0,0,100,0.00,40.00,0,-999,0,0.00
2012-4-8,39,35,31,-100,-100,-100,0,0,100,0.00,40.00,0,-999,0,0.00
2012-4-9,42,35,29,-100,-100,-100,0,0,100,0.00,40.00,0,-999,0,0.25
2012-4-10,46,38,34,-100,-100,-100,0,0,100,0.00,40.00,0,-999,0,0.23
2012-4-11,49,39,32,-100,-100,-100,0,0,100,0.00,40.00,0,-999,0,0.09
2012-4-12,46,39,28,-100,-100,-100,0,0,100,0.00,40.00,0,-999,0,0.00
2012-4-13,55,41,24,-100,-100,-100,0,0,100,0.00,40.00,0,-999,0,0.00
2012-4-14,62,46,28,-100,-100,-100,0,0,100,0.00,40.00,0,-999,0,0.00
2012-4-15,72,54,40,-100,-100,-100,0,0,100,0.00,40.00,0,-999,0,0.00
2012-4-16,82,63,47,-100,-100,-100,0,0,100,0.00,40.00,0,-999,0,0.00
2012-4-17,68,60,45,-100,-100,-100,0,0,100,0.00,40.00,0,-999,0,0.00
2012-4-18,56,43,31,-100,-100,-100,0,0,100,0.00,40.00,0,-999,0,0.00
2012-4-19,68,47,26,-100,-100,-100,0,0,100,0.00,40.00,0,-999,0,0.00
2012-4-20,72,54,32,-100,-100,-100,0,0,100,0.00,40.00,0,-999,0,0.00
2012-4-21,71,57,43,-100,-100,-100,0,0,100,0.00,40.00,0,-999,0,0.34
2012-4-22,44,41,37,-100,-100,-100,0,0,100,0.00,40.00,0,-999,0,0.75
2012-4-23,51,43,36,-100,-100,-100,0,0,100,0.00,40.00,0,-999,0,0.99
2012-4-24,51,46,39,-100,-100,-100,0,0,100,0.00,40.00,0,-999,0,0.19
2012-4-25,50,42,30,-100,-100,-100,0,0,100,0.00,40.00,0,-999,0,0.00
2012-4-26,58,44,30,-100,-100,-100,0,0,100,0.00,40.00,0,-999,0,0.26
2012-4-27,43,37,28,-100,-100,-100,0,0,100,0.00,40.00,0,-999,0,0.63
2012-4-28,41,31,24,-100,-100,-100,0,0,100,0.00,40.00,0,-999,0,0.03
2012-4-29,42,35,24,-100,-100,-100,0,0,100,0.00,40.00,0,-999,0,0.01
2012-4-30,55,42,31,-100,-100,-100,0,0,100,0.00,40.00,0,-999,0,0.00
2012-5-1,41,39,37,-100,-100,-100,0,0,100,0.00,40.00,0,-999,0,0.37
2012-5-2,50,43,38,-100,-100,-100,0,0,100,0.00,40.00,0,-999,0,0.01
2012-5-3,61,49,42,-100,-100,-100,0,0,100,0.00,40.00,0,-999,0,0.00
2012-5-4,50,48,46,-100,-100,-100,0,0,100,0.00,40.00,0,-999,0,0.27
2012-5-5,55,48,36,-100,-100,-100,0,0,100,0.00,40.00,0,-999,0,0.05
2012-5-6,62,45,30,-100,-100,-100,0,0,100,0.00,40.00,0,-999,0,0.00
2012-5-7,68,49,27,-100,-100,-100,0,0,100,0.00,40.00,0,-999,0,0.00
2012-5-8,49,43,37,-100,-100,-100,0,0,100,0.00,40.00,0,-999,0,0.46
2012-5-9,57,50,42,-100,-100,-100,0,0,100,0.00,40.00,0,-999,0,0.35
2012-5-10,53,49,44,-100,-100,-100,0,0,100,0.00,40.00,0,-999,0,0.63
2012-5-11,57,46,35,-100,-100,-100,0,0,100,0.00,40.00,0,-999,0,0.02
2012-5-12,70,52,29,-100,-100,-100,0,0,100,0.00,40.00,0,-999,0,0.01
2012-5-13,67,55,49,-100,-100,-100,0,0,100,0.00,40.00,0,-999,0,0.03
2012-5-14,66,57,48,-100,-100,-100,0,0,100,0.00,40.00,0,-999,0,0.01
2012-5-15,60,57,54,-100,-100,-100,0,0,100,0.00,40.00,0,-999,0,0.46
2012-5-16,74,61,52,-100,-100,-100,0,0,100,0.00,40.00,0,-999,0,0.08
2012-5-17,57,50,37,-100,-100,-100,0,0,100,0.00,40.00,0,-999,0,0.11
2012-5-18,70,52,30,-100,-100,-100,0,0,100,0.00,40.00,0,-999,0,0.00
2012-5-19,79,60,38,-100,-100,-100,0,0,100,0.00,40.00,0,-999,0,0.00
2012-5-20,85,65,44,-100,-100,-100,0,0,100,0.00,40.00,0,-999,0,0.00
2012-5-21,78,64,48,-100,-100,-100,0,0,100,0.00,40.00,0,-999,0,0.00
2012-5-22,69,62,58,-100,-100,-100,0,0,100,0.00,40.00,0,-999,0,0.37
2012-5-23,75,64,56,-100,-100,-100,0,0,100,0.00,40.00,0,-999,0,0.39
2012-5-24,73,63,51,-100,-100,-100,0,0,100,0.00,40.00,0,-999,0,0.01
2012-5-25,68,61,53,-100,-100,-100,0,0,100,0.00,40.00,0,-999,0,0.00
2012-5-26,76,66,52,-100,-100,-100,0,0,100,0.00,40.00,0,-999,0,0.01
2012-5-27,73,60,47,-100,-100,-100,0,0,100,0.00,40.00,0,-999,0,0.01
2012-5-28,66,59,52,-100,-100,-100,0,0,100,0.00,40.00,0,-999,0,0.06
2012-5-29,70,60,53,-100,-100,-100,0,0,100,0.00,40.00,0,-999,0,3.28
2012-5-30,77,64,57,-100,-100,-100,0,0,100,0.00,40.00,0,-999,0,0.77
2012-5-31,68,59,47,-100,-100,-100,0,0,100,0.00,40.00,0,-999,0,0.36
2012-6-1,69,55,39,-100,-100,-100,0,0,100,0.00,40.00,0,-999,0,0.00
2012-6-2,57,53,50,-100,-100,-100,0,0,100,0.00,40.00,0,-999,0,1.44
2012-6-3,50,49,47,-100,-100,-100,0,0,100,0.00,40.00,0,-999,0,1.91
2012-6-4,51,48,47,-100,-100,-100,0,0,100,0.00,40.00,0,-999,0,0.39
2012-6-5,59,51,46,-100,-100,-100,0,0,100,0.00,40.00,0,-999,0,0.02
2012-6-6,62,54,46,-100,-100,-100,0,0,100,0.00,40.00,0,-999,0,0.05
2012-6-7,64,55,45,-100,-100,-100,0,0,100,0.00,40.00,0,-999,0,0.01
2012-6-8,70,56,45,-100,-100,-100,0,0,100,0.00,40.00,0,-999,0,0.60
2012-6-9,70,58,46,-100,-100,-100,0,0,100,0.00,40.00,0,-999,0,0.05
2012-6-10,78,60,38,-100,-100,-100,0,0,100,0.00,40.00,0,-999,0,0.01
2012-6-11,77,62,46,-100,-100,-100,0,0,100,0.00,40.00,0,-999,0,0.00
2012-6-12,79,65,50,-100,-100,-100,0,0,100,0.00,40.00,0,-999,0,0.01
2012-6-13,72,63,54,-100,-100,-100,0,0,100,0.00,40.00,0,-999,0,0.48
2012-6-14,70,58,43,-100,-100,-100,0,0,100,0.00,40.00,0,-999,0,0.03
2012-6-15,74,59,39,-100,-100,-100,0,0,100,0.00,40.00,0,-999,0,0.00
2012-6-16,76,61,43,-100,-100,-100,0,0,100,0.00,40.00,0,-999,0,0.00
2012-6-17,74,62,51,-100,-100,-100,0,0,100,0.00,40.00,0,-999,0,0.00
2012-6-18,69,58,47,-100,-100,-100,0,0,100,0.00,40.00,0,-999,0,0.00
2012-6-19,78,63,48,-100,-100,-100,0,0,100,0.00,40.00,0,-999,0,0.00
2012-6-20,86,75,62,-100,-100,-100,0,0,100,0.00,40.00,0,-999,0,0.00
2012-6-21,88,77,65,-100,-100,-100,0,0,100,0.00,40.00,0,-999,0,0.00
2012-6-22,83,73,60,-100,-100,-100,0,0,100,0.00,40.00,0,-999,0,0.00
2012-6-23,76,62,55,-100,-100,-100,0,0,100,0.00,40.00,0,-999,0,0.87
2012-6-24,77,66,53,-100,-100,-100,0,0,100,0.00,40.00,0,-999,0,0.03
2012-6-25,65,59,57,-100,-100,-100,0,0,100,0.00,40.00,0,-999,0,0.87
2012-6-26,59,56,55,-100,-100,-100,0,0,100,0.00,40.00,0,-999,0,0.69
2012-6-27,64,59,56,-100,-100,-100,0,0,100,0.00,40.00,0,-999,0,0.27
2012-6-28,72,64,57,-100,-100,-100,0,0,100,0.00,40.00,0,-999,0,0.05
2012-6-29,86,68,52,-100,-100,-100,0,0,100,0.00,40.00,0,-999,0,0.06
2012-6-30,83,73,58,-100,-100,-100,0,0,100,0.00,40.00,0,-999,0,0.01
2012-7-1,78,68,57,-100,-100,-100,0,0,100,0.00,40.00,0,-999,0,0.02
2012-7-2,74,64,54,-100,-100,-100,0,0,100,0.00,40.00,0,-999,0,0.08
2012-7-3,77,64,50,-100,-100,-100,0,0,100,0.00,40.00,0,-999,0,0.09
2012-7-4,75,63,54,-100,-100,-100,0,0,100,0.00,40.00,0,-999,0,0.21
2012-7-5,76,66,59,-100,-100,-100,0,0,100,0.00,40.00,0,-999,0,0.04
2012-7-6,83,69,55,-100,-100,-100,0,0,100,0.00,40.00,0,-999,0,0.00
2012-7-7,80,72,62,-100,-100,-100,0,0,100,0.00,40.00,0,-999,0,0.00
2012-7-8,74,64,51,-100,-100,-100,0,0,100,0.00,40.00,0,-999,0,0.00
2012-7-9,71,59,44,-100,-100,-100,0,0,100,0.00,40.00,0,-999,0,0.00
2012-7-10,76,61,41,-100,-100,-100,0,0,100,0.00,40.00,0,-999,0,0.00
2012-7-11,81,64,46,-100,-100,-100,0,0,100,0.00,40.00,0,-999,0,0.00
2012-7-12,84,67,47,-100,-100,-100,0,0,100,0.00,40.00,0,-999,0,0.00
2012-7-13,86,70,50,-100,-100,-100,0,0,100,0.00,40.00,0,-999,0,0.00
2012-7-14,89,71,52,-100,-100,-100,0,0,100,0.00,40.00,0,-999,0,0.00
2012-7-15,89,72,56,-100,-100,-100,0,0,100,0.00,40.00,0,-999,0,0.00
2012-7-16,83,73,64,-100,-100,-100,0,0,100,0.00,40.00,0,-999,0,0.05
2012-7-17,78,68,59,-100,-100,-100,0,0,100,0.00,40.00,0,-999,0,0.45
2012-7-18,79,69,52,-100,-100,-100,0,0,100,0.00,40.00,0,-999,0,0.01
2012-7-19,70,58,45,-100,-100,-100,0,0,100,0.00,40.00,0,-999,0,0.00
2012-7-20,75,59,43,-100,-100,-100,0,0,100,0.00,40.00,0,-999,0,0.00
2012-7-21,80,63,45,-100,-100,-100,0,0,100,0.00,40.00,0,-999,0,0.00
2012-7-22,82,69,57,-100,-100,-100,0,0,100,0.00,40.00,0,-999,0,0.00
2012-7-23,86,71,58,-100,-100,-100,0,0,100,0.00,40.00,0,-999,0,0.53
2012-7-24,77,67,61,-100,-100,-100,0,0,100,0.00,40.00,0,-999,0,0.70
2012-7-25,72,63,57,-100,-100,-100,0,0,100,0.00,40.00,0,-999,0,0.04
2012-7-26,65,60,54,-100,-100,-100,0,0,100,0.00,40.00,0,-999,0,0.08
2012-7-27,78,68,61,-100,-100,-100,0,0,100,0.00,40.00,0,-999,0,0.01
2012-7-28,75,65,58,-100,-100,-100,0,0,100,0.00,40.00,0,-999,0,0.47
2012-7-29,72,66,60,-100,-100,-100,0,0,100,0.00,40.00,0,-999,0,0.05
2012-7-30,82,67,56,-100,-100,-100,0,0,100,0.00,40.00,0,-999,0,0.03
2012-7-31,81,69,55,-100,-100,-100,0,0,100,0.00,40.00,0,-999,0,0.00
2012-8-1,77,66,53,-100,-100,-100,0,0,100,0.00,40.00,0,-999,0,0.18
2012-8-2,84,70,61,-100,-100,-100,0,0,100,0.00,40.00,0,-999,0,0.09
2012-8-3,84,71,59,-100,-100,-100,0,0,100,0.00,40.00,0,-999,0,0.08
2012-8-4,88,71,54,-100,-100,-100,0,0,100,0.00,40.00,0,-999,0,0.00
2012-8-5,86,73,60,-100,-100,-100,0,0,100,0.00,40.00,0,-999,0,0.30
2012-8-6,71,65,52,-100,-100,-100,0,0,100,0.00,40.00,0,-999,0,0.50
2012-8-7,80,63,49,-100,-100,-100,0,0,100,0.00,40.00,0,-999,0,0.00
2012-8-8,83,67,51,-100,-100,-100,0,0,100,0.00,40.00,0,-999,0,0.00
2012-8-9,80,67,56,-100,-100,-100,0,0,100,0.00,40.00,0,-999,0,0.24
2012-8-10,74,68,63,-100,-100,-100,0,0,100,0.00,40.00,0,-999,0,2.29
2012-8-11,74,69,64,-100,-100,-100,0,0,100,0.00,40.00,0,-999,0,0.91
2012-8-12,79,70,64,-100,-100,-100,0,0,100,0.00,40.00,0,-999,0,0.51
2012-8-13,79,68,61,-100,-100,-100,0,0,100,0.00,40.00,0,-999,0,0.52
2012-8-14,76,66,57,-100,-100,-100,0,0,100,0.00,40.00,0,-999,0,0.01
2012-8-15,72,64,56,-100,-100,-100,0,0,100,0.00,40.00,0,-999,0,0.25
2012-8-16,69,64,58,-100,-100,-100,0,0,100,0.00,40.00,0,-999,0,0.11
2012-8-17,81,65,54,-100,-100,-100,0,0,100,0.00,40.00,0,-999,0,0.06
2012-8-18,72,62,50,-100,-100,-100,0,0,100,0.00,40.00,0,-999,0,0.05
2012-8-19,76,58,43,-100,-100,-100,0,0,100,0.00,40.00,0,-999,0,0.00
2012-8-20,77,60,45,-100,-100,-100,0,0,100,0.00,40.00,0,-999,0,0.00
2012-8-21,73,62,50,-100,-100,-100,0,0,100,0.00,40.00,0,-999,0,0.02
2012-8-22,78,60,43,-100,-100,-100,0,0,100,0.00,40.00,0,-999,0,0.01
2012-8-23,79,62,46,-100,-100,-100,0,0,100,0.00,40.00,0,-999,0,0.01
2012-8-24,78,64,53,-100,-100,-100,0,0,100,0.00,40.00,0,-999,0,0.01
2012-8-25,81,65,49,-100,-100,-100,0,0,100,0.00,40.00,0,-999,0,0.06
2012-8-26,85,69,58,-100,-100,-100,0,0,100,0.00,40.00,0,-999,0,0.07
2012-8-27,82,68,58,-100,-100,-100,0,0,100,0.00,40.00,0,-999,0,0.04
2012-8-28,72,66,54,-100,-100,-100,0,0,100,0.00,40.00,0,-999,0,0.41
2012-8-29,71,58,45,-100,-100,-100,0,0,100,0.00,40.00,0,-999,0,0.01
2012-8-30,77,61,44,-100,-100,-100,0,0,100,0.00,40.00,0,-999,0,0.00
2012-8-31,73,66,58,-100,-100,-100,0,0,100,0.00,40.00,0,-999,0,0.09
2012-9-1,75,63,48,-100,-100,-100,0,0,100,0.00,40.00,0,-999,0,0.05
2012-9-2,73,57,44,-100,-100,-100,0,0,100,0.00,40.00,0,-999,0,0.00
2012-9-3,76,58,43,-100,-100,-100,0,0,100,0.00,40.00,0,-999,0,0.00
2012-9-4,70,60,49,-100,-100,-100,0,0,100,0.00,40.00,0,-999,0,0.00
2012-9-5,70,64,59,-100,-100,-100,0,0,100,0.00,40.00,0,-999,0,2.30
2012-9-6,77,62,53,-100,-100,-100,0,0,100,0.00,40.00,0,-999,0,0.01
2012-9-7,78,65,56,-100,-100,-100,0,0,100,0.00,40.00,0,-999,0,0.01
2012-9-8,78,65,54,-100,-100,-100,0,0,100,0.00,40.00,0,-999,0,0.70
2012-9-9,63,56,44,-100,-100,-100,0,0,100,0.00,40.00,0,-999,0,0.70
2012-9-10,56,51,42,-100,-100,-100,0,0,100,0.00,40.00,0,-999,0,0.01
2012-9-11,66,52,38,-100,-100,-100,0,0,100,0.00,40.00,0,-999,0,0.00
2012-9-12,76,55,40,-100,-100,-100,0,0,100,0.00,40.00,0,-999,0,0.00
2012-9-13,80,59,43,-100,-100,-100,0,0,100,0.00,40.00,0,-999,0,0.00
2012-9-14,80,61,46,-100,-100,-100,0,0,100,0.00,40.00,0,-999,0,0.00
2012-9-15,61,56,49,-100,-100,-100,0,0,100,0.00,40.00,0,-999,0,0.00
2012-9-16,59,48,36,-100,-100,-100,0,0,100,0.00,40.00,0,-999,0,0.00
2012-9-17,72,50,32,-100,-100,-100,0,0,100,0.00,40.00,0,-999,0,0.00
2012-9-18,66,55,43,-100,-100,-100,0,0,100,0.00,40.00,0,-999,0,0.64
2012-9-19,65,53,37,-100,-100,-100,0,0,100,0.00,40.00,0,-999,0,1.00
2012-9-20,60,45,32,-100,-100,-100,0,0,100,0.00,40.00,0,-999,0,0.01
2012-9-21,63,48,35,-100,-100,-100,0,0,100,0.00,40.00,0,-999,0,0.00
2012-9-22,73,54,39,-100,-100,-100,0,0,100,0.00,40.00,0,-999,0,0.00
2012-9-23,60,53,37,-100,-100,-100,0,0,100,0.00,40.00,0,-999,0,0.31
2012-9-24,55,42,33,-100,-100,-100,0,0,100,0.00,40.00,0,-999,0,0.07
2012-9-25,66,47,32,-100,-100,-100,0,0,100,0.00,40.00,0,-999,0,0.06
2012-9-26,59,50,42,-100,-100,-100,0,0,100,0.00,40.00,0,-999,0,0.13
2012-9-27,54,47,34,-100,-100,-100,0,0,100,0.00,40.00,0,-999,0,0.02
2012-9-28,54,42,32,-100,-100,-100,0,0,100,0.00,40.00,0,-999,0,0.10
2012-9-29,51,49,47,-100,-100,-100,0,0,100,0.00,40.00,0,-999,0,0.06
2012-9-30,55,51,49,-100,-100,-100,0,0,100,0.00,40.00,0,-999,0,0.55
2012-10-1,55,52,48,-100,-100,-100,0,0,100,0.00,40.00,0,-999,0,0.29
2012-10-2,66,57,47,-100,-100,-100,0,0,100,0.00,40.00,0,-999,0,0.01
2012-10-3,63,57,51,-100,-100,-100,0,0,100,0.00,40.00,0,-999,0,0.10
2012-10-4,59,57,55,-100,-100,-100,0,0,100,0.00,40.00,0,-999,0,0.50
2012-10-5,71,59,51,-100,-100,-100,0,0,100,0.00,40.00,0,-999,0,0.36
2012-10-6,70,54,40,-100,-100,-100,0,0,100,0.00,40.00,0,-999,0,0.37
2012-10-7,50,43,38,-100,-100,-100,0,0,100,0.00,40.00,0,-999,0,0.04
2012-10-8,50,40,31,-100,-100,-100,0,0,100,0.00,40.00,0,-999,0,0.11
2012-10-9,53,40,29,-100,-100,-100,0,0,100,0.00,40.00,0,-999,0,0.00
2012-10-10,53,43,32,-100,-100,-100,0,0,100,0.00,40.00,0,-999,0,0.19
2012-10-11,47,41,35,-100,-100,-100,0,0,100,0.00,40.00,0,-999,0,0.25
2012-10-12,46,42,38,-100,-100,-100,0,0,100,0.00,40.00,0,-999,0,0.02
2012-10-15,59,52,43,-100,-100,-100,0,0,100,0.00,40.00,0,-999,0,0.10
2012-10-16,52,44,39,-100,-100,-100,0,0,100,0.00,40.00,0,-999,0,0.10
2012-10-17,56,42,32,-100,-100,-100,0,0,100,0.00,40.00,0,-999,0,0.01
2012-10-18,63,46,32,-100,-100,-100,0,0,100,0.00,40.00,0,-999,0,0.00
2012-10-19,54,46,34,-100,-100,-100,0,0,100,0.00,40.00,0,-999,0,0.29
2012-10-20,68,57,51,-100,-100,-100,0,0,100,0.00,40.00,0,-999,0,0.19
2012-10-21,52,46,35,-100,-100,-100,0,0,100,0.00,40.00,0,-999,0,0.02
2012-10-22,49,46,44,-100,-100,-100,0,0,100,0.00,40.00,0,-999,0,0.02
2012-10-23,50,42,29,-100,-100,-100,0,0,100,0.00,40.00,0,-999,0,0.00
2012-10-24,58,39,25,-100,-100,-100,0,0,100,0.00,40.00,0,-999,0,0.00
2012-10-25,61,42,27,-100,-100,-100,0,0,100,0.00,40.00,0,-999,0,0.00
2012-10-26,71,48,34,-100,-100,-100,0,0,100,0.00,40.00,0,-999,0,0.00
2012-10-27,67,51,39,-100,-100,-100,0,0,100,0.00,40.00,0,-999,0,0.00
2012-10-28,57,51,43,-100,-100,-100,0,0,100,0.00,40.00,0,-999,0,0.00
2012-10-29,57,53,49,-100,-100,-100,0,0,100,0.00,40.00,0,-999,0,0.07
2012-10-30,60,58,54,-100,-100,-100,0,0,100,0.00,40.00,0,-999,0,1.05
2012-10-31,59,55,46,-100,-100,-100,0,0,100,0.00,40.00,0,-999,0,0.33
2012-11-1,47,44,41,-100,-100,-100,0,0,100,0.00,40.00,0,-999,0,0.02
2012-11-2,44,41,38,-100,-100,-100,0,0,100,0.00,40.00,0,-999,0,0.01
2012-11-3,41,38,36,-100,-100,-100,0,0,100,0.00,40.00,0,-999,0,0.01
2012-11-4,36,34,31,-100,-100,-100,0,0,100,0.00,40.00,0,-999,0,0.00
2012-11-5,31,29,25,-100,-100,-100,0,0,100,0.00,40.00,0,-999,0,0.00
2012-11-6,30,25,16,-100,-100,-100,0,0,100,0.00,40.00,0,-999,0,0.00
2012-11-7,34,25,13,-100,-100,-100,0,0,100,0.00,40.00,0,-999,0,0.00
2012-11-8,36,33,29,-100,-100,-100,0,0,100,0.00,40.00,0,-999,0,0.00
2012-11-9,38,34,32,-100,-100,-100,0,0,100,0.00,40.00,0,-999,0,0.00
2012-11-10,39,34,23,-100,-100,-100,0,0,100,0.00,40.00,0,-999,0,0.00
2012-11-11,46,33,25,-100,-100,-100,0,0,100,0.00,40.00,0,-999,0,0.00
2012-11-12,61,41,27,-100,-100,-100,0,0,100,0.00,40.00,0,-999,0,0.00
2012-11-13,59,41,26,-100,-100,-100,0,0,100,0.00,40.00,0,-999,0,0.46
2012-11-14,36,27,20,-100,-100,-100,0,0,100,0.00,40.00,0,-999,0,0.04
2012-11-15,38,25,17,-100,-100,-100,0,0,100,0.00,40.00,0,-999,0,0.00
2012-11-16,39,26,16,-100,-100,-100,0,0,100,0.00,40.00,0,-999,0,0.00
2012-11-17,40,31,20,-100,-100,-100,0,0,100,0.00,40.00,0,-999,0,0.00
2012-11-18,40,24,13,-100,-100,-100,0,0,100,0.00,40.00,0,-999,0,0.00
2012-11-19,41,24,13,-100,-100,-100,0,0,100,0.00,40.00,0,-999,0,0.00
2012-11-20,45,26,14,-100,-100,-100,0,0,100,0.00,40.00,0,-999,0,0.00
2012-11-21,45,31,22,-100,-100,-100,0,0,100,0.00,40.00,0,-999,0,0.00
2012-11-22,46,28,18,-100,-100,-100,0,0,100,0.00,40.00,0,-999,0,0.00
2012-11-23,49,32,19,-100,-100,-100,0,0,100,0.00,40.00,0,-999,0,0.00
2012-11-24,35,32,25,-100,-100,-100,0,0,100,0.00,40.00,0,-999,0,0.10
2012-11-25,25,22,20,-100,-100,-100,0,0,100,0.00,40.00,0,-999,0,0.02
2012-11-26,29,22,10,-100,-100,-100,0,0,100,0.00,40.00,0,-999,0,0.00
2012-11-27,26,14,6,-100,-100,-100,0,0,100,0.00,40.00,0,-999,0,0.00
2012-11-28,27,17,8,-100,-100,-100,0,0,100,0.00,40.00,0,-999,0,0.00
2012-11-29,28,24,18,-100,-100,-100,0,0,100,0.00,40.00,0,-999,0,0.04
2012-11-30,18,10,-1,-100,-100,-100,0,0,100,0.00,40.00,0,-999,0,0.03
2012-12-1,23,12,-4,-100,-100,-100,0,0,100,0.00,40.00,0,-999,0,0.00
2012-12-2,43,32,23,-100,-100,-100,0,0,100,0.00,40.00,0,-999,0,0.33
2012-12-3,44,36,31,-100,-100,-100,0,0,100,0.00,40.00,0,-999,0,0.34
2012-12-4,37,34,31,-100,-100,-100,0,0,100,0.00,40.00,0,-999,0,0.02
2012-12-5,42,34,25,-100,-100,-100,0,0,100,0.00,40.00,0,-999,0,0.54
2012-12-6,28,22,14,-100,-100,-100,0,0,100,0.00,40.00,0,-999,0,0.01
2012-12-7,34,25,15,-100,-100,-100,0,0,100,0.00,40.00,0,-999,0,0.00
2012-12-8,35,30,21,-100,-100,-100,0,0,100,0.00,40.00,0,-999,0,0.00
2012-12-9,40,32,27,-100,-100,-100,0,0,100,0.00,40.00,0,-999,0,0.01
2012-12-10,37,31,27,-100,-100,-100,0,0,100,0.00,40.00,0,-999,0,0.72
2012-12-11,35,27,17,-100,-100,-100,0,0,100,0.00,40.00,0,-999,0,0.34
2012-12-12,32,24,20,-100,-100,-100,0,0,100,0.00,40.00,0,-999,0,0.00
2012-12-13,34,26,17,-100,-100,-100,0,0,100,0.00,40.00,0,-999,0,0.00
2012-12-14,37,27,14,-100,-100,-100,0,0,100,0.00,40.00,0,-999,0,0.00
2012-12-15,30,16,5,-100,-100,-100,0,0,100,0.00,40.00,0,-999,0,0.00
2012-12-16,20,13,4,-100,-100,-100,0,0,100,0.00,40.00,0,-999,0,0.44
2012-12-17,27,24,18,-100,-100,-100,0,0,100,0.00,40.00,0,-999,0,0.64
2012-12-18,33,31,27,-100,-100,-100,0,0,100,0.00,40.00,0,-999,0,0.61
2012-12-19,36,33,31,-100,-100,-100,0,0,100,0.00,40.00,0,-999,0,0.29
2012-12-20,33,31,29,-100,-100,-100,0,0,100,0.00,40.00,0,-999,0,0.01
2012-12-21,43,33,28,-100,-100,-100,0,0,100,0.00,40.00,0,-999,0,0.84
2012-12-22,34,28,16,-100,-100,-100,0,0,100,0.00,40.00,0,-999,0,0.21
2012-12-23,23,18,14,-100,-100,-100,0,0,100,0.00,40.00,0,-999,0,0.01
2012-12-24,23,17,9,-100,-100,-100,0,0,100,0.00,40.00,0,-999,0,0.01
2012-12-25,23,12,4,-100,-100,-100,0,0,100,0.00,40.00,0,-999,0,0.00
2012-12-26,24,12,-1,-100,-100,-100,0,0,100,0.00,40.00,0,-999,0,0.00
2012-12-27,26,23,19,-100,-100,-100,0,0,100,0.00,40.00,0,-999,0,0.56
2012-12-28,22,20,18,-100,-100,-100,0,0,100,0.00,40.00,0,-999,0,0.06
2012-12-29,22,19,14,-100,-100,-100,0,0,100,0.00,40.00,0,-999,0,0.16
2012-12-30,22,12,6,-100,-100,-100,0,0,100,0.00,40.00,0,-999,0,0.11
2012-12-31,25,17,7,-100,-100,-100,0,0,100,0.00,40.00,0,-999,0,0.00
2013-1-1,26,15,3,-100,-100,-100,0,0,100,0.00,40.00,0,-999,0,0.03